Whiskeytown, California
Current Conditions -  °F | °C
As of 3:53 PM on Wednesday 22 Oct 2014 (Local Time) from KRDD Reporting Station
Clear Clear  
Wind Chill: 64°   Ceiling: Unl
Heat Index: 64°   Visibility: 10mi
Dew Point: 51°   Wind: 0mph
Humidity: 63%   Direction: NA
Pressure: 30"   Gusts: NA
Location:  40.64°N, 122.56°W
Report Text: KRDD 222253Z 00000KT 10SM CLR 18/11 A3000 RMK AO2 SLP157 T01780106
Loading
Personal Weather Stations






























Interactive Weather Map
Tropical Storm Tracking
New forecast layout! Learn more

10-Day Weather Forecast

Advertisements
Track Severe Weather on mobile